Time;durP1;ratioP1;P1;durP2;ratioP2;P2;SDS_P1;SDS_P2;PMS_P1;PMS_P2;Temp;Humidity;BMP_temperature;BMP_pressure;BME280_temperature;BME280_humidity;BME280_pressure;Samples;Min_cycle;Max_cycle;Signal;HPM_P1;HPM_P2
2023/12/16 00:01:15;;;;;;;;;;;;;;;17.21;47.49;102036.91;4982283;28;1835;-61
2023/12/16 00:03:40;;;;;;;;;;;;;;;16.70;48.36;102039.47;4986731;28;1167;-63
2023/12/16 00:06:07;;;;;;;;;;;;;;;16.20;49.83;102040.03;4987968;28;1161;-63
2023/12/16 00:08:32;;;;;;;;;;;;;;;15.83;50.76;102043.88;4988903;28;1910;-63
2023/12/16 00:10:58;;;;;;;;;;;;;;;16.05;50.34;102044.13;4977939;28;1164;-64
2023/12/16 00:13:24;;;;;;;;;;;;;;;17.47;46.90;102034.59;4989104;28;1128;-62
2023/12/16 00:15:49;;;;;;;;;;;;;;;16.63;48.86;102047.00;4984169;28;1254;-62
2023/12/16 00:18:15;;;;;;;;;;;;;;;16.07;50.07;102047.47;4994083;28;1079;-62
2023/12/16 00:20:40;;;;;;;;;;;;;;;16.23;49.96;102053.31;4983554;28;1120;-62
2023/12/16 00:23:06;;;;;;;;;;;;;;;17.54;46.71;102046.25;4997033;28;1075;-62
2023/12/16 00:25:31;;;;;;;;;;;;;;;16.67;48.76;102059.19;4979472;28;1103;-60
2023/12/16 00:27:57;;;;;;;;;;;;;;;16.12;49.75;102057.72;4988431;28;1973;-60
2023/12/16 00:30:22;;;;;;;;;;;;;;;15.86;50.42;102054.34;4992054;28;2460;-60
2023/12/16 00:32:48;;;;;;;;;;;;;;;16.34;49.57;102044.22;4997004;28;1037;-61
2023/12/16 00:35:13;;;;;;;;;;;;;;;17.55;46.60;102047.13;4995872;28;1084;-60
2023/12/16 00:37:39;;;;;;;;;;;;;;;16.69;48.30;102037.81;4996246;28;1160;-61
2023/12/16 00:40:05;;;;;;;;;;;;;;;16.17;49.76;102043.25;4983850;28;1306;-59
2023/12/16 00:42:30;;;;;;;;;;;;;;;15.85;50.34;102047.22;4987236;28;1276;-59
2023/12/16 00:44:56;;;;;;;;;;;;;;;17.07;47.70;102032.81;4977412;28;1123;-60
2023/12/16 00:47:22;;;;;;;;;;;;;;;16.88;47.88;102032.13;4987225;28;1978;-59
2023/12/16 00:49:47;;;;;;;;;;;;;;;16.17;49.83;102030.41;4996621;28;1043;-60
2023/12/16 00:52:13;;;;;;;;;;;;;;;15.82;50.44;102035.88;4996302;28;1080;-59
2023/12/16 00:54:38;;;;;;;;;;;;;;;16.16;49.81;102030.63;4990224;28;1108;-60
2023/12/16 00:57:04;;;;;;;;;;;;;;;17.53;46.50;102024.50;4987060;28;1043;-62
2023/12/16 00:59:29;;;;;;;;;;;;;;;16.58;48.74;102024.94;4992774;28;1053;-59
2023/12/16 01:01:55;;;;;;;;;;;;;;;16.16;49.71;102027.88;4978564;28;2684;-61
2023/12/16 01:04:20;;;;;;;;;;;;;;;15.72;50.95;102034.53;4992702;28;1020;-59
2023/12/16 01:06:46;;;;;;;;;;;;;;;17.05;47.88;102043.19;4995816;28;845;-60
2023/12/16 01:09:11;;;;;;;;;;;;;;;16.80;48.15;102038.00;4996488;28;1898;-60
2023/12/16 01:11:37;;;;;;;;;;;;;;;16.24;49.58;102046.72;4987015;28;1094;-59
2023/12/16 01:14:02;;;;;;;;;;;;;;;15.88;50.35;102044.00;4988967;28;994;-59
2023/12/16 01:16:28;;;;;;;;;;;;;;;16.23;49.83;102031.34;4985671;28;1055;-58
2023/12/16 01:18:54;;;;;;;;;;;;;;;17.51;46.26;102034.94;4988287;28;1119;-59
2023/12/16 01:21:19;;;;;;;;;;;;;;;16.49;48.87;102034.63;4985639;28;1097;-59
2023/12/16 01:23:45;;;;;;;;;;;;;;;16.06;49.99;102037.56;4982715;28;1223;-59
2023/12/16 01:26:10;;;;;;;;;;;;;;;15.67;50.61;102036.28;4996483;28;1043;-60
2023/12/16 01:28:36;;;;;;;;;;;;;;;16.99;47.93;102034.03;4995428;28;1898;-61
2023/12/16 01:31:02;;;;;;;;;;;;;;;16.99;47.25;102036.78;4995121;28;2691;-61
2023/12/16 01:33:27;;;;;;;;;;;;;;;16.20;49.46;102040.03;4982972;28;1067;-61
2023/12/16 01:35:53;;;;;;;;;;;;;;;15.89;50.29;102039.34;4996352;28;1156;-59
2023/12/16 01:38:18;;;;;;;;;;;;;;;16.06;49.89;102048.53;4983003;28;1113;-59
2023/12/16 01:40:44;;;;;;;;;;;;;;;17.45;46.58;102037.59;4987954;28;1055;-63
2023/12/16 01:43:10;;;;;;;;;;;;;;;16.58;48.23;102050.50;4982114;28;1009;-61
2023/12/16 01:45:36;;;;;;;;;;;;;;;16.01;49.92;102058.56;4996691;28;1008;-62
2023/12/16 01:48:03;;;;;;;;;;;;;;;15.72;50.26;102059.22;4999927;28;1902;-60
2023/12/16 01:50:29;;;;;;;;;;;;;;;17.03;47.40;102054.44;5000400;28;1032;-61
2023/12/16 01:52:54;;;;;;;;;;;;;;;17.06;46.97;102045.69;4997435;28;1179;-65
2023/12/16 01:55:20;;;;;;;;;;;;;;;16.37;49.00;102051.97;4991104;28;869;-61
2023/12/16 01:57:45;;;;;;;;;;;;;;;15.91;49.82;102045.44;4997290;28;1047;-60
2023/12/16 02:00:20;;;;;;;;;;;;;;;16.97;47.42;102047.19;4981226;28;1827;-60
2023/12/16 02:02:48;;;;;;;;;;;;;;;16.95;47.11;102043.84;5008144;28;1116;-61
2023/12/16 02:05:13;;;;;;;;;;;;;;;16.22;49.10;102044.22;4999670;28;1063;-63
2023/12/16 02:07:39;;;;;;;;;;;;;;;15.91;49.88;102048.19;4996155;28;1910;-62
2023/12/16 02:10:04;;;;;;;;;;;;;;;16.25;49.38;102045.66;4990504;28;1195;-62
2023/12/16 02:12:36;;;;;;;;;;;;;;;17.53;45.88;102041.00;4996444;28;1145;-60
2023/12/16 02:15:01;;;;;;;;;;;;;;;16.54;48.18;102046.56;5000067;28;1092;-60
2023/12/16 02:17:27;;;;;;;;;;;;;;;15.99;49.67;102058.78;4995849;28;1128;-58
2023/12/16 02:19:53;;;;;;;;;;;;;;;16.08;49.85;102048.28;4983212;28;1043;-60
2023/12/16 02:22:18;;;;;;;;;;;;;;;17.53;45.94;102049.25;4993251;28;1051;-61
2023/12/16 02:24:44;;;;;;;;;;;;;;;16.69;47.79;102062.53;4990207;28;1057;-61
2023/12/16 02:27:09;;;;;;;;;;;;;;;16.11;49.44;102052.47;4995907;28;1071;-60
2023/12/16 02:29:35;;;;;;;;;;;;;;;15.83;50.11;102070.47;4989979;28;1914;-61
2023/12/16 02:32:00;;;;;;;;;;;;;;;16.36;48.86;102069.50;4985849;28;2835;-60
2023/12/16 02:34:26;;;;;;;;;;;;;;;17.63;45.81;102074.22;4988710;28;1152;-61
2023/12/16 02:36:51;;;;;;;;;;;;;;;16.71;47.74;102096.06;4996175;28;1088;-59
2023/12/16 02:39:17;;;;;;;;;;;;;;;16.16;49.03;102091.00;4999089;28;1072;-60
2023/12/16 02:41:42;;;;;;;;;;;;;;;15.84;49.87;102091.34;4998483;28;1083;-60
2023/12/16 02:44:08;;;;;;;;;;;;;;;16.08;49.45;102109.47;4994040;28;1005;-59
2023/12/16 02:46:33;;;;;;;;;;;;;;;17.45;46.16;102103.59;4982625;28;1116;-60
2023/12/16 02:48:59;;;;;;;;;;;;;;;16.69;47.65;102119.34;4989024;28;1972;-60
2023/12/16 02:51:25;;;;;;;;;;;;;;;16.15;49.23;102114.88;4986009;28;1081;-62
2023/12/16 02:53:51;;;;;;;;;;;;;;;15.84;49.88;102111.38;4998691;28;1134;-61
2023/12/16 02:56:17;;;;;;;;;;;;;;;16.50;48.62;102115.94;4996721;28;1020;-60
2023/12/16 02:58:42;;;;;;;;;;;;;;;17.37;46.13;102114.16;4987832;28;1093;-59
2023/12/16 03:01:08;;;;;;;;;;;;;;;16.40;48.24;102116.53;4987496;28;2434;-59
2023/12/16 03:03:34;;;;;;;;;;;;;;;15.94;49.42;102124.50;4988831;28;1180;-60
2023/12/16 03:06:06;;;;;;;;;;;;;;;16.05;49.53;102129.16;4979277;28;1069;-59
2023/12/16 03:08:32;;;;;;;;;;;;;;;17.48;45.91;102123.44;4995481;28;1910;-60
2023/12/16 03:10:57;;;;;;;;;;;;;;;16.66;47.54;102130.81;4985810;28;1120;-59
2023/12/16 03:13:23;;;;;;;;;;;;;;;16.08;49.02;102128.69;4988006;28;1196;-59
2023/12/16 03:15:49;;;;;;;;;;;;;;;15.82;49.77;102131.88;4995793;28;1081;-59
2023/12/16 03:18:14;;;;;;;;;;;;;;;16.74;47.63;102134.03;4987815;28;1140;-63
2023/12/16 03:20:40;;;;;;;;;;;;;;;17.19;46.29;102132.50;4983309;28;1025;-62
2023/12/16 03:23:05;;;;;;;;;;;;;;;16.31;48.35;102143.50;4998290;28;1095;-64
2023/12/16 03:25:31;;;;;;;;;;;;;;;15.98;49.35;102147.66;4985393;28;1230;-63
2023/12/16 03:27:56;;;;;;;;;;;;;;;16.42;48.42;102150.91;4987649;28;1906;-63
2023/12/16 03:30:22;;;;;;;;;;;;;;;17.28;46.07;102143.97;4994003;28;1942;-63
2023/12/16 03:32:47;;;;;;;;;;;;;;;16.39;48.23;102161.53;4991727;28;926;-63
2023/12/16 03:35:13;;;;;;;;;;;;;;;15.97;49.41;102151.47;4997827;28;1055;-64
2023/12/16 03:37:38;;;;;;;;;;;;;;;15.88;49.58;102152.91;4988583;28;1005;-63
2023/12/16 03:40:04;;;;;;;;;;;;;;;17.31;46.27;102150.91;4981888;28;1077;-64
2023/12/16 03:42:30;;;;;;;;;;;;;;;16.89;47.04;102151.97;4997644;28;1098;-65
2023/12/16 03:44:55;;;;;;;;;;;;;;;16.17;48.74;102153.03;4983460;28;874;-60
2023/12/16 03:47:22;;;;;;;;;;;;;;;15.82;49.46;102159.31;4998055;28;1989;-62
2023/12/16 03:49:47;;;;;;;;;;;;;;;16.57;47.68;102155.09;4997787;28;1059;-63
2023/12/16 03:52:13;;;;;;;;;;;;;;;17.28;45.99;102165.97;4993355;28;1446;-61
2023/12/16 03:54:40;;;;;;;;;;;;;;;16.38;47.93;102168.94;4981438;28;1065;-61
2023/12/16 03:57:05;;;;;;;;;;;;;;;15.95;49.04;102174.72;4979697;28;862;-61
2023/12/16 03:59:31;;;;;;;;;;;;;;;16.05;49.21;102185.97;4993283;28;1009;-61
2023/12/16 04:01:56;;;;;;;;;;;;;;;17.46;45.65;102186.94;4988941;28;2529;-62
2023/12/16 04:04:22;;;;;;;;;;;;;;;16.71;47.27;102186.72;4982223;28;1112;-61
2023/12/16 04:06:47;;;;;;;;;;;;;;;16.19;48.59;102192.91;4977832;28;1032;-61
2023/12/16 04:09:13;;;;;;;;;;;;;;;15.83;49.34;102199.38;4993439;28;1989;-61
2023/12/16 04:11:48;;;;;;;;;;;;;;;15.88;49.64;102207.75;4986957;28;1066;-60
2023/12/16 04:14:13;;;;;;;;;;;;;;;17.39;45.92;102200.84;4980783;28;1108;-61
2023/12/16 04:16:39;;;;;;;;;;;;;;;16.68;47.06;102192.69;4982697;28;1215;-60
2023/12/16 04:19:04;;;;;;;;;;;;;;;16.11;48.49;102206.13;4994647;28;1204;-59
2023/12/16 04:21:32;;;;;;;;;;;;;;;15.89;49.19;102217.63;4993158;28;1011;-62
2023/12/16 04:23:58;;;;;;;;;;;;;;;17.37;45.73;102204.91;4997451;28;1037;-64
2023/12/16 04:26:23;;;;;;;;;;;;;;;16.97;46.27;102211.19;4994593;28;1012;-61
2023/12/16 04:28:49;;;;;;;;;;;;;;;16.28;48.21;102217.25;4986930;28;1909;-62
2023/12/16 04:31:17;;;;;;;;;;;;;;;15.95;49.26;102221.34;4986231;28;1941;-58
2023/12/16 04:33:45;;;;;;;;;;;;;;;16.64;47.70;102227.19;4997387;28;1090;-61
2023/12/16 04:36:14;;;;;;;;;;;;;;;17.20;45.89;102232.31;4982542;28;1163;-62
2023/12/16 04:38:40;;;;;;;;;;;;;;;16.32;47.91;102232.19;4983515;28;1236;-62
2023/12/16 04:41:05;;;;;;;;;;;;;;;15.90;48.93;102233.84;4977949;28;970;-60
2023/12/16 04:43:31;;;;;;;;;;;;;;;15.77;49.48;102235.91;4989893;28;1137;-58
2023/12/16 04:45:56;;;;;;;;;;;;;;;17.25;45.97;102246.16;4983311;28;1176;-58
2023/12/16 04:48:22;;;;;;;;;;;;;;;16.69;47.16;102240.19;4990763;28;1914;-57
2023/12/16 04:50:47;;;;;;;;;;;;;;;16.17;48.57;102238.13;4997101;28;1063;-60
2023/12/16 04:53:13;;;;;;;;;;;;;;;15.79;49.25;102248.38;4991505;28;1131;-56
2023/12/16 04:55:38;;;;;;;;;;;;;;;15.95;49.39;102263.34;4987052;28;1099;-61
2023/12/16 04:58:04;;;;;;;;;;;;;;;17.35;45.71;102253.78;4995760;28;1152;-59
2023/12/16 05:00:29;;;;;;;;;;;;;;;16.67;47.25;102265.16;4989963;28;1870;-56
2023/12/16 05:02:55;;;;;;;;;;;;;;;15.98;48.63;102262.06;4982396;28;1137;-62
2023/12/16 05:05:20;;;;;;;;;;;;;;;15.78;49.62;102267.78;4996791;28;1029;-61
2023/12/16 05:07:46;;;;;;;;;;;;;;;17.23;46.05;102268.38;4980274;28;1906;-56
2023/12/16 05:10:11;;;;;;;;;;;;;;;16.83;46.91;102284.75;4989840;28;1112;-60
2023/12/16 05:12:38;;;;;;;;;;;;;;;16.18;48.28;102278.22;4982602;28;1251;-59
2023/12/16 05:15:04;;;;;;;;;;;;;;;15.77;49.48;102280.66;4996079;28;1016;-59
2023/12/16 05:17:29;;;;;;;;;;;;;;;15.52;49.89;102284.34;4983875;28;1168;-58
2023/12/16 05:19:55;;;;;;;;;;;;;;;16.79;47.05;102294.56;4992555;28;1039;-63
2023/12/16 05:22:20;;;;;;;;;;;;;;;17.21;45.67;102297.22;4976745;28;1053;-64
2023/12/16 05:24:48;;;;;;;;;;;;;;;16.32;47.98;102293.41;4988855;28;1059;-65
2023/12/16 05:27:13;;;;;;;;;;;;;;;16.98;46.95;102296.13;4983766;28;1140;-63
2023/12/16 05:29:39;;;;;;;;;;;;;;;17.09;46.20;102295.28;4996219;28;1987;-61
2023/12/16 05:32:04;;;;;;;;;;;;;;;16.18;48.01;102295.50;4991520;28;2725;-60
2023/12/16 05:34:30;;;;;;;;;;;;;;;17.69;45.18;102309.78;4989046;28;1123;-58
2023/12/16 05:36:55;;;;;;;;;;;;;;;16.69;47.14;102295.13;4979465;28;1160;-59
2023/12/16 05:39:21;;;;;;;;;;;;;;;16.13;48.31;102303.63;4987207;28;1412;-60
2023/12/16 05:41:46;;;;;;;;;;;;;;;17.58;45.43;102288.66;4983526;28;1270;-61
2023/12/16 05:44:13;;;;;;;;;;;;;;;16.47;47.87;102305.88;4992343;28;1004;-61
2023/12/16 05:46:38;;;;;;;;;;;;;;;17.56;45.59;102299.06;4993876;28;1156;-58
2023/12/16 05:49:04;;;;;;;;;;;;;;;17.26;46.11;102302.81;4986088;28;1914;-58
2023/12/16 05:51:29;;;;;;;;;;;;;;;16.67;47.77;102309.09;4989934;28;1068;-60
2023/12/16 05:53:55;;;;;;;;;;;;;;;18.24;44.09;102310.31;4987220;28;1045;-59
2023/12/16 05:56:20;;;;;;;;;;;;;;;17.02;46.64;102319.31;4991351;28;1122;-60
2023/12/16 05:58:46;;;;;;;;;;;;;;;17.78;45.20;102312.97;4977000;28;1021;-60
2023/12/16 06:01:11;;;;;;;;;;;;;;;17.83;45.09;102320.53;4976771;28;1852;-62
2023/12/16 06:03:37;;;;;;;;;;;;;;;16.86;46.95;102322.78;4986932;28;1160;-59
2023/12/16 06:06:03;;;;;;;;;;;;;;;17.35;46.33;102328.03;4979517;28;1151;-57
2023/12/16 06:08:28;;;;;;;;;;;;;;;17.02;47.00;102321.25;4980865;28;1910;-56
2023/12/16 06:10:54;;;;;;;;;;;;;;;18.26;44.54;102324.69;4992382;28;1037;-60
2023/12/16 06:13:19;;;;;;;;;;;;;;;18.55;43.37;102324.63;4976805;28;1069;-58
2023/12/16 06:15:45;;;;;;;;;;;;;;;17.36;45.97;102336.06;4992764;28;1084;-59
2023/12/16 06:18:10;;;;;;;;;;;;;;;17.75;45.69;102333.59;4986712;28;1052;-57
2023/12/16 06:20:36;;;;;;;;;;;;;;;17.61;45.49;102345.91;4988429;28;1025;-60
2023/12/16 06:23:01;;;;;;;;;;;;;;;17.10;46.36;102340.13;4986520;28;1219;-57
2023/12/16 06:25:27;;;;;;;;;;;;;;;17.92;45.48;102363.09;4982785;28;1044;-59
2023/12/16 06:27:52;;;;;;;;;;;;;;;17.19;46.41;102360.66;4986548;28;1906;-59
2023/12/16 06:30:18;;;;;;;;;;;;;;;16.89;47.14;102366.28;4987290;28;2393;-56
2023/12/16 06:32:43;;;;;;;;;;;;;;;17.70;45.46;102360.97;4981419;28;1065;-57
2023/12/16 06:35:09;;;;;;;;;;;;;;;16.89;46.98;102377.28;4992781;28;1048;-60
2023/12/16 06:37:34;;;;;;;;;;;;;;;18.00;45.12;102375.66;4989578;28;989;-61
2023/12/16 06:40:00;;;;;;;;;;;;;;;17.32;46.43;102381.59;4999262;28;1095;-59
2023/12/16 06:42:25;;;;;;;;;;;;;;;16.99;46.69;102388.50;4990190;28;1227;-57
2023/12/16 06:44:51;;;;;;;;;;;;;;;18.02;44.98;102396.34;4982973;28;1130;-58
2023/12/16 06:47:17;;;;;;;;;;;;;;;17.12;46.36;102395.69;4979678;28;1017;-55
2023/12/16 06:49:42;;;;;;;;;;;;;;;17.61;46.08;102406.44;4992768;28;1971;-59
2023/12/16 06:52:08;;;;;;;;;;;;;;;17.39;46.01;102406.19;4979937;28;1123;-56
2023/12/16 06:54:33;;;;;;;;;;;;;;;17.32;46.52;102409.09;4992919;28;1012;-57
2023/12/16 06:56:59;;;;;;;;;;;;;;;18.56;43.58;102407.00;4994259;28;1456;-57
2023/12/16 06:59:24;;;;;;;;;;;;;;;17.35;46.16;102407.75;4998641;28;1021;-56
2023/12/16 07:01:50;;;;;;;;;;;;;;;17.07;46.69;102417.56;4981394;28;2802;-58
2023/12/16 07:04:16;;;;;;;;;;;;;;;17.69;45.51;102414.31;4994158;28;1124;-59
2023/12/16 07:06:41;;;;;;;;;;;;;;;17.19;46.82;102421.13;4990320;28;1057;-58
2023/12/16 07:09:07;;;;;;;;;;;;;;;18.76;43.22;102419.50;4983249;28;1985;-57
2023/12/16 07:11:34;;;;;;;;;;;;;;;17.69;45.22;102430.84;4987924;28;1180;-57
2023/12/16 07:14:00;;;;;;;;;;;;;;;17.18;46.23;102435.97;4996225;28;1126;-56
2023/12/16 07:16:25;;;;;;;;;;;;;;;17.95;45.15;102439.69;4978888;28;1103;-56
2023/12/16 07:18:50;;;;;;;;;;;;;;;17.26;45.99;102443.03;4993656;28;1154;-56
2023/12/16 07:21:16;;;;;;;;;;;;;;;17.99;44.96;102440.03;4991966;28;996;-52
2023/12/16 07:23:41;;;;;;;;;;;;;;;18.12;44.38;102440.59;4979834;28;1097;-59
2023/12/16 07:26:07;;;;;;;;;;;;;;;17.31;45.91;102445.09;4998531;28;1068;-56
2023/12/16 07:28:32;;;;;;;;;;;;;;;16.90;46.20;102440.22;4985287;28;1910;-56
2023/12/16 07:30:59;;;;;;;;;;;;;;;18.05;44.73;102456.41;4996223;28;2533;-56
2023/12/16 07:33:24;;;;;;;;;;;;;;;17.06;46.39;102452.44;4993110;28;1041;-57
2023/12/16 07:35:50;;;;;;;;;;;;;;;17.58;46.01;102456.44;4989940;28;1132;-56
2023/12/16 07:38:15;;;;;;;;;;;;;;;17.49;45.69;102463.34;4991896;28;998;-57
2023/12/16 07:40:41;;;;;;;;;;;;;;;17.08;46.74;102464.03;4986875;28;1130;-55
2023/12/16 07:43:06;;;;;;;;;;;;;;;18.53;43.77;102456.28;4997474;28;1039;-56
2023/12/16 07:45:34;;;;;;;;;;;;;;;17.27;46.25;102467.53;4990431;28;995;-55
2023/12/16 07:47:59;;;;;;;;;;;;;;;16.92;46.33;102464.72;4993296;28;1906;-55
2023/12/16 07:50:25;;;;;;;;;;;;;;;18.07;44.75;102475.44;4998211;28;1192;-56
2023/12/16 07:52:50;;;;;;;;;;;;;;;17.09;46.57;102479.44;4996405;28;1117;-56
2023/12/16 07:55:16;;;;;;;;;;;;;;;18.28;44.29;102480.28;4978601;28;1124;-56
2023/12/16 07:57:41;;;;;;;;;;;;;;;18.08;44.53;102475.19;4986724;28;1124;-58
2023/12/16 08:00:08;;;;;;;;;;;;;;;17.26;46.00;102484.25;4994486;28;1874;-56
2023/12/16 08:02:35;;;;;;;;;;;;;;;17.99;45.15;102487.66;4991483;28;1100;-55
2023/12/16 08:05:01;;;;;;;;;;;;;;;17.36;46.07;102487.28;4987340;28;1200;-57
2023/12/16 08:07:26;;;;;;;;;;;;;;;17.13;46.31;102490.81;4997838;28;1015;-56
2023/12/16 08:09:52;;;;;;;;;;;;;;;17.86;44.92;102487.88;4997195;28;1910;-58
2023/12/16 08:12:17;;;;;;;;;;;;;;;17.04;46.62;102490.31;4997573;28;1083;-58
2023/12/16 08:14:43;;;;;;;;;;;;;;;18.05;44.90;102491.38;4989438;28;1214;-57
2023/12/16 08:17:08;;;;;;;;;;;;;;;17.40;45.97;102494.00;4991648;28;1084;-58
2023/12/16 08:19:34;;;;;;;;;;;;;;;16.97;46.24;102500.59;4986407;28;1094;-57
2023/12/16 08:22:00;;;;;;;;;;;;;;;17.94;44.95;102501.31;4989859;28;1028;-59
2023/12/16 08:24:26;;;;;;;;;;;;;;;17.05;46.42;102507.66;4989078;28;1111;-54
2023/12/16 08:26:51;;;;;;;;;;;;;;;18.61;43.68;102516.50;4990734;28;1180;-56
2023/12/16 08:29:18;;;;;;;;;;;;;;;17.84;44.98;102514.78;4977797;28;1977;-58
2023/12/16 08:31:44;;;;;;;;;;;;;;;17.22;45.74;102510.56;4992543;28;2745;-54
2023/12/16 08:34:09;;;;;;;;;;;;;;;17.47;46.13;102512.28;4996638;28;905;-55
2023/12/16 08:36:35;;;;;;;;;;;;;;;17.61;45.55;102517.31;4996160;28;1036;-55
2023/12/16 08:39:01;;;;;;;;;;;;;;;17.00;46.51;102502.84;4997158;28;1111;-56
2023/12/16 08:41:27;;;;;;;;;;;;;;;17.76;45.74;102514.06;4997018;28;1043;-54
2023/12/16 08:43:52;;;;;;;;;;;;;;;17.03;46.51;102512.56;4996317;28;1257;-55
2023/12/16 08:46:23;;;;;;;;;;;;;;;17.27;46.52;102521.69;4987868;28;1114;-54
2023/12/16 08:48:48;;;;;;;;;;;;;;;17.73;45.31;102509.06;4997025;28;1902;-57
2023/12/16 08:51:19;;;;;;;;;;;;;;;16.94;46.60;102506.53;4983791;28;1063;-56
2023/12/16 08:53:45;;;;;;;;;;;;;;;17.20;46.70;102508.03;4996986;28;1039;-53
2023/12/16 08:56:10;;;;;;;;;;;;;;;17.56;45.89;102508.94;4995932;28;1068;-54
2023/12/16 08:58:36;;;;;;;;;;;;;;;17.31;46.66;102494.56;4993376;28;926;-53
2023/12/16 09:01:02;;;;;;;;;;;;;;;18.81;43.03;102492.06;4981475;28;2433;-53
2023/12/16 09:03:27;;;;;;;;;;;;;;;17.68;45.53;102489.66;4986064;28;1024;-53
2023/12/16 09:05:53;;;;;;;;;;;;;;;17.15;45.93;102488.66;4995602;28;1055;-56
2023/12/16 09:08:18;;;;;;;;;;;;;;;17.92;44.97;102490.56;4984974;28;1974;-56
2023/12/16 09:10:44;;;;;;;;;;;;;;;17.14;45.98;102487.00;4986316;28;1047;-55
2023/12/16 09:13:10;;;;;;;;;;;;;;;17.71;45.73;102491.97;4988882;28;1148;-53
2023/12/16 09:15:36;;;;;;;;;;;;;;;17.61;45.59;102489.81;4989889;28;1069;-54
2023/12/16 09:18:02;;;;;;;;;;;;;;;17.06;46.03;102488.16;4977430;28;1065;-54
2023/12/16 09:20:27;;;;;;;;;;;;;;;17.90;45.31;102486.34;4978202;28;1041;-57
2023/12/16 09:22:53;;;;;;;;;;;;;;;17.33;46.17;102485.00;4991642;28;853;-47
2023/12/16 09:25:19;;;;;;;;;;;;;;;16.84;46.27;102489.75;4983531;28;1027;-48
2023/12/16 09:27:44;;;;;;;;;;;;;;;17.22;46.38;102488.56;4989048;28;1906;-47
2023/12/16 09:30:10;;;;;;;;;;;;;;;17.66;45.70;102494.59;4987144;28;2489;-47
2023/12/16 09:32:35;;;;;;;;;;;;;;;16.99;46.56;102484.69;4984741;28;1258;-49
2023/12/16 09:35:02;;;;;;;;;;;;;;;18.52;43.87;102471.13;4982214;28;1097;-49
2023/12/16 09:37:28;;;;;;;;;;;;;;;17.48;45.74;102472.72;4984645;28;1207;-52
2023/12/16 09:39:53;;;;;;;;;;;;;;;16.99;46.29;102462.69;4994293;28;1151;-52
2023/12/16 09:42:19;;;;;;;;;;;;;;;17.34;46.45;102472.91;4984981;28;1149;-47
2023/12/16 09:44:44;;;;;;;;;;;;;;;17.41;45.96;102462.63;4994260;28;1491;-52
2023/12/16 09:47:11;;;;;;;;;;;;;;;17.02;46.96;102473.22;4980145;28;930;-46
2023/12/16 09:49:38;;;;;;;;;;;;;;;18.61;43.58;102476.00;4978939;28;1947;-51
2023/12/16 09:52:04;;;;;;;;;;;;;;;17.35;45.93;102482.00;4987833;28;1116;-44
2023/12/16 09:54:30;;;;;;;;;;;;;;;17.05;45.79;102480.16;4989876;28;1120;-52
2023/12/16 09:56:55;;;;;;;;;;;;;;;17.61;45.78;102476.06;4976880;28;1021;-48
2023/12/16 09:59:21;;;;;;;;;;;;;;;17.22;46.31;102475.66;4989122;28;1059;-47
2023/12/16 10:01:51;;;;;;;;;;;;;;;16.82;46.29;102483.66;4978027;28;2530;-50
2023/12/16 10:04:16;;;;;;;;;;;;;;;17.72;45.43;102490.03;4978197;28;1266;-50
2023/12/16 10:06:42;;;;;;;;;;;;;;;16.92;46.89;102489.44;4995694;28;1044;-50
2023/12/16 10:09:08;;;;;;;;;;;;;;;18.52;43.76;102487.66;4997388;28;1917;-51
2023/12/16 10:11:40;;;;;;;;;;;;;;;17.83;45.12;102496.63;4985214;28;953;-51
2023/12/16 10:14:05;;;;;;;;;;;;;;;17.18;46.08;102501.09;4993474;28;1065;-51
2023/12/16 10:16:31;;;;;;;;;;;;;;;18.35;44.01;102488.41;4989926;28;1139;-51
2023/12/16 10:18:57;;;;;;;;;;;;;;;17.26;46.09;102489.75;4999798;28;1096;-51
2023/12/16 10:21:25;;;;;;;;;;;;;;;17.13;46.76;102493.56;4989768;28;1076;-52
2023/12/16 10:23:51;;;;;;;;;;;;;;;17.50;45.76;102498.03;4983901;28;1068;-50
2023/12/16 10:26:17;;;;;;;;;;;;;;;16.98;46.25;102491.25;4989642;28;1124;-52
2023/12/16 10:28:46;;;;;;;;;;;;;;;17.15;46.33;102490.56;4996513;28;1906;-51
2023/12/16 10:31:12;;;;;;;;;;;;;;;17.52;45.82;102496.72;4987077;28;2727;-50
2023/12/16 10:33:38;;;;;;;;;;;;;;;16.94;46.55;102506.53;4997425;28;1037;-51
2023/12/16 10:36:03;;;;;;;;;;;;;;;17.78;45.54;102500.94;4982592;28;851;-49
2023/12/16 10:38:29;;;;;;;;;;;;;;;17.10;46.54;102489.38;4992395;28;1012;-50
2023/12/16 10:40:54;;;;;;;;;;;;;;;16.76;46.45;102500.00;4990106;28;1068;-49
2023/12/16 10:43:20;;;;;;;;;;;;;;;17.90;45.28;102500.09;4995321;28;1206;-52
2023/12/16 10:45:46;;;;;;;;;;;;;;;17.08;46.64;102496.19;4990218;28;1001;-50
2023/12/16 10:48:12;;;;;;;;;;;;;;;17.34;46.59;102500.41;4998664;28;1902;-48
2023/12/16 10:50:40;;;;;;;;;;;;;;;17.83;45.16;102491.94;4998169;28;1092;-47
2023/12/16 10:53:06;;;;;;;;;;;;;;;17.02;46.51;102500.69;4981319;28;1167;-52
2023/12/16 10:55:37;;;;;;;;;;;;;;;17.42;46.37;102500.06;4990055;28;1195;-48
2023/12/16 10:58:12;;;;;;;;;;;;;;;17.16;46.54;102503.25;4992520;28;1036;-51
2023/12/16 11:00:38;;;;;;;;;;;;;;;17.58;45.88;102494.94;4977255;28;2518;-52
2023/12/16 11:03:04;;;;;;;;;;;;;;;18.39;43.89;102500.63;4998372;28;1136;-52
2023/12/16 11:05:32;;;;;;;;;;;;;;;17.28;46.09;102504.94;4986420;28;1041;-50
2023/12/16 11:08:01;;;;;;;;;;;;;;;17.22;46.32;102505.06;4992477;28;1906;-48
2023/12/16 11:10:27;;;;;;;;;;;;;;;17.61;45.59;102506.31;4991079;28;1103;-47
2023/12/16 11:12:53;;;;;;;;;;;;;;;17.00;46.43;102502.00;4998910;28;1076;-47
2023/12/16 11:15:18;;;;;;;;;;;;;;;17.81;45.56;102521.63;4984314;28;1078;-52
2023/12/16 11:17:44;;;;;;;;;;;;;;;17.28;46.12;102517.88;4997341;28;1019;-49
2023/12/16 11:20:19;;;;;;;;;;;;;;;17.43;46.27;102512.75;4998044;28;1025;-47
2023/12/16 11:22:51;;;;;;;;;;;;;;;18.23;44.38;102507.75;4969394;28;1180;-48
2023/12/16 11:25:18;;;;;;;;;;;;;;;17.18;46.17;102517.59;4998052;28;1575;-51
2023/12/16 11:27:45;;;;;;;;;;;;;;;17.13;46.75;102518.31;4989545;28;1906;-48
2023/12/16 11:30:12;;;;;;;;;;;;;;;17.73;45.46;102514.56;4992998;28;2337;-47
2023/12/16 11:32:38;;;;;;;;;;;;;;;17.49;46.25;102515.63;4989008;28;1490;-49
2023/12/16 11:35:03;;;;;;;;;;;;;;;18.96;42.94;102510.03;4990817;28;1113;-50
2023/12/16 11:37:35;;;;;;;;;;;;;;;17.76;45.42;102525.09;4989759;28;1046;-49
2023/12/16 11:40:04;;;;;;;;;;;;;;;17.19;45.98;102524.78;4991883;28;1024;-49
2023/12/16 11:43:02;;;;;;;;;;;;;;;17.28;46.32;102526.13;4988497;28;1048;-49
2023/12/16 11:45:39;;;;;;;;;;;;;;;17.31;46.31;102513.81;4986018;28;1454;-47
2023/12/16 11:48:09;;;;;;;;;;;;;;;16.91;46.08;102518.00;4991872;28;1948;-47
2023/12/16 11:50:37;;;;;;;;;;;;;;;18.11;44.63;102512.41;4988596;28;1093;-49
2023/12/16 11:53:03;;;;;;;;;;;;;;;17.15;46.57;102518.06;4994681;28;1063;-52
2023/12/16 11:55:29;;;;;;;;;;;;;;;16.85;46.22;102521.66;4978719;28;1021;-48
2023/12/16 11:57:54;;;;;;;;;;;;;;;17.76;45.61;102513.25;4995382;28;1202;-50
2023/12/16 12:00:20;;;;;;;;;;;;;;;17.01;46.52;102518.28;4988423;28;2467;-51
2023/12/16 12:02:49;;;;;;;;;;;;;;;18.39;44.21;102521.84;4981981;28;1021;-51
2023/12/16 12:05:15;;;;;;;;;;;;;;;17.76;45.23;102527.84;4997523;28;1029;-47
2023/12/16 12:07:41;;;;;;;;;;;;;;;17.20;46.11;102520.97;4997287;28;1998;-50
2023/12/16 12:10:06;;;;;;;;;;;;;;;17.64;45.97;102526.16;4987274;28;1179;-47
2023/12/16 12:12:32;;;;;;;;;;;;;;;17.36;46.29;102520.28;4984214;28;1239;-45
2023/12/16 12:14:57;;;;;;;;;;;;;;;17.00;46.28;102524.84;4997841;28;977;-49
2023/12/16 12:17:23;;;;;;;;;;;;;;;18.03;44.93;102521.03;4997191;28;1520;-52
2023/12/16 12:19:49;;;;;;;;;;;;;;;17.10;46.54;102522.34;4997528;28;1078;-50
2023/12/16 12:22:14;;;;;;;;;;;;;;;18.32;44.47;102523.88;4993875;28;1000;-52
2023/12/16 12:24:40;;;;;;;;;;;;;;;17.92;45.04;102525.47;4992421;28;904;-49
2023/12/16 12:27:08;;;;;;;;;;;;;;;17.19;46.19;102535.78;4993108;28;1150;-47
2023/12/16 12:29:53;;;;;;;;;;;;;;;17.86;45.48;102534.66;4989005;28;1983;-49
2023/12/16 12:32:18;;;;;;;;;;;;;;;17.28;46.12;102529.69;4990391;28;1120;-47
2023/12/16 12:34:44;;;;;;;;;;;;;;;16.79;46.38;102539.03;4990793;28;1128;-49
2023/12/16 12:37:09;;;;;;;;;;;;;;;18.05;44.71;102544.50;4988472;28;905;-52
2023/12/16 12:39:35;;;;;;;;;;;;;;;17.13;46.49;102544.97;4990447;28;1140;-48
2023/12/16 12:42:01;;;;;;;;;;;;;;;18.39;44.06;102539.19;4983264;28;1067;-50